SBOSBO BDS / LIBR
Speedbird OnlineSpeedbird Online BDS / LIBR

Brindisi – Salento Airport
08:42 20°C

Location Brindisi, Italy
Latitude: 40.6576
Longitude: 17.947001
Web Airport Website | Wikipedia
Altitude 14 Meter / 47 Feet
Distance 1,820 KM / 1,131 Miles
from London.
Time Zone UTC +2 hours (Europe/Rome)
Codes IATA: BDS
ICAO: LIBR
Currency £1 equals EUR 1.15
Runways
RunwayLength (m)Surface
051796Asphalt
133048Asphalt
231796Asphalt
313048Asphalt
Radio
TypeDescriptionFrequency
APPBRINDISI APP118.4
APPBRINDISI APP36.365
GNDGND31.355
ILS RWY 32109.5
TWRBRINDISI TWR118.1
Live ATC
METAR LIBR 060620Z 36010KT CAVOK 20/13 Q1026
TAF TAF LIBR 060500Z 0606/0706 35012KT 9999 FEW040
Weather As Of 06 Oct 2022 08:42
Description Clear sky
Wind 19 km/h from North (360°)
Cloud Cover 0%
Precipitation Rain: none, Snow: none
Sunrise 06:49
Sunset 18:23
Rotations During the last 90 days there were
44 flights from LHR
52 flights to LHR


© 2017-2022 Speedbird Online